Saturday, November 1, 2014, 6:50 AM EDT

KTHV, York Airport

Location: Spring Grove, PA, United States Lat: 39.917
Local Time: 6:50 AM EDT (10:50 GMT) Lon: -76.883
Time Zone: US/Eastern Elev: 478 ft

Show me the last for .
Show Decoded

2014-11-01 06:42 METAR KTHV 011042Z AUTO 33004KT 10SM -RA BKN025 BKN030 OVC036 07/05 A2982 RMK
                 AO2 P0001 T00720050 =
2014-11-01 06:34 METAR KTHV 011034Z AUTO 35005KT 9SM -RA SCT019 SCT026 OVC034 07/05 A2982 RMK AO2
                 P0001 T00720050 =
2014-11-01 05:53 METAR KTHV 010953Z AUTO 01005KT 10SM -RA BKN020 OVC065 08/04 A2981 RMK AO2 RAB40
                 SLP099 P0000 T00780044 =
2014-11-01 04:53 METAR KTHV 010853Z AUTO 36005KT 10SM OVC020 08/04 A2980 RMK AO2 RAE0758 SLP096
                 P0000 60000 T00780044 55007 =
2014-11-01 03:53 METAR KTHV 010753Z AUTO 34005KT 10SM -RA OVC020 08/04 A2980 RMK AO2 RAB44 SLP096
                 P0000 T00780044 =
2014-11-01 02:53 METAR KTHV 010653Z AUTO 36004KT 10SM OVC028 08/03 A2982 RMK AO2 SLP102 T00830033
                 =
2014-11-01 01:53 METAR KTHV 010553Z AUTO 29003KT 10SM OVC029 08/03 A2983 RMK AO2 RAB0456E12
                 SLP103 P0000 60000 T00780033 10089 20056 58013 =
2014-11-01 00:53 METAR KTHV 010453Z AUTO 33003KT 10SM OVC038 07/04 A2984 RMK AO2 SLP107 T00720039
                 401170056 =
2014-10-31 22:53 METAR KTHV 010253Z AUTO 01003KT 10SM OVC055 06/03 A2987 RMK AO2 SLP117 T00610028
                 58001 =
2014-10-31 21:53 METAR KTHV 010153Z AUTO 00000KT 10SM OVC055 08/03 A2987 RMK AO2 SLP118 T00780033
                 =
2014-10-31 20:53 METAR KTHV 010053Z AUTO 01004KT 10SM OVC055 08/03 A2987 RMK AO2 SLP120 T00780033
                 =
2014-10-31 19:53 METAR KTHV 312353Z AUTO 27003KT 10SM OVC055 08/03 A2987 RMK AO2 SLP119 T00780033
                 10117 20078 58001 =
2014-10-31 18:53 METAR KTHV 312253Z AUTO 00000KT 10SM OVC055 09/03 A2988 RMK AO2 SLP122 T00890033
                 =
2014-10-31 17:53 METAR KTHV 312153Z AUTO 00000KT 10SM OVC055 11/M01 A2987 RMK AO2 SLP119
                 T01061006 =
2014-10-31 16:53 METAR KTHV 312053Z AUTO 00000KT 10SM OVC055 11/M01 A2987 RMK AO2 SLP119
                 T01111006 56016 =
2014-10-31 15:53 METAR KTHV 311953Z AUTO 08003KT 10SM OVC055 12/00 A2988 RMK AO2 SLP120 T01170000
                 =
2014-10-31 14:53 METAR KTHV 311853Z AUTO 09004KT 10SM OVC055 11/01 A2989 RMK AO2 SLP126 T01110006
                 $ =
2014-10-31 13:53 METAR KTHV 311753Z AUTO 08006KT 10SM OVC055 11/01 A2992 RMK AO2 SLP135 T01110011
                 10111 20072 58022 $ =
2014-10-31 12:53 METAR KTHV 311653Z AUTO 09007KT 10SM OVC055 10/02 A2994 RMK AO2 SLP143 T01000017
                 $ =
2014-10-31 11:53 METAR KTHV 311553Z AUTO 08005KT 10SM OVC055 09/02 A2998 RMK AO2 SLP158 T00940022
                 $ =
2014-10-31 10:53 METAR KTHV 311453Z AUTO 12006KT 10SM OVC055 09/02 A2999 RMK AO2 SLP159 T00890017
                 58003 $ =
2014-10-31 09:53 METAR KTHV 311353Z AUTO 09006KT 10SM OVC055 08/02 A3000 RMK AO2 SLP162 T00830022
                 $ =
2014-10-31 08:53 METAR KTHV 311253Z AUTO 08005KT 10SM OVC055 08/03 A3000 RMK AO2 SLP164 T00830033
                 $ =
2014-10-31 07:53 METAR KTHV 311153Z AUTO 12003KT 10SM OVC055 07/04 A3000 RMK AO2 SLP162 T00720039
                 10078 20067 57004 =
2014-10-31 06:53 METAR KTHV 311053Z AUTO 00000KT 10SM OVC055 07/04 A3000 RMK AO2 SLP163 T00720044
                 =

Support USWX by starting your Amazon purchase here.